Uptown, New Jersey
Current Conditions -  °F | °C
As of 3:51 PM on Thursday 20 Nov 2014 (Local Time) from KNYC Reporting Station
Few Clouds Few Clouds  
Wind Chill: 43°   Ceiling: Unl
Heat Index: 45°   Visibility: 10mi
Dew Point: 20°   Wind: 5mph
Humidity: 37%   Direction: NA
Pressure: 29.87"   Gusts: NA
Location:  40.7453°N, 74.032°W
Report Text: KNYC 202051Z AUTO VRB04KT 10SM FEW060 07/M07 A2987 RMK AO2 SLP107 T00721067 55004 $
Loading
Personal Weather Stations






























Interactive Weather Map New forecast layout! Learn more

10-Day Weather Forecast

Advertisements
Track Severe Weather on mobile